createdAt,value
2022-08-27T00:00:53.238Z,101691.66
2022-08-27T00:03:23.059Z,101696.09
2022-08-27T00:05:52.929Z,101696.09
2022-08-27T00:08:25.494Z,101684.50
2022-08-27T00:10:55.291Z,101695.16
2022-08-27T00:13:25.064Z,101690.72
2022-08-27T00:15:54.835Z,101688.06
2022-08-27T00:18:24.631Z,101680.91
2022-08-27T00:20:54.387Z,101677.31
2022-08-27T00:23:26.942Z,101679.06
2022-08-27T00:25:56.824Z,101675.47
2022-08-27T00:28:29.125Z,101671.91
2022-08-27T00:30:59.820Z,101674.56
2022-08-27T00:33:31.736Z,101674.56
2022-08-27T00:36:01.599Z,101676.28
2022-08-27T00:38:34.418Z,101676.28
2022-08-27T00:41:04.185Z,101671.84
2022-08-27T00:43:48.681Z,101663.81
2022-08-27T00:46:24.685Z,101667.41
2022-08-27T00:48:56.957Z,101670.06
2022-08-27T00:51:28.132Z,101663.88
2022-08-27T00:54:02.717Z,101670.06
2022-08-27T00:56:37.624Z,101659.44
2022-08-27T00:59:08.079Z,101660.28
2022-08-27T01:01:58.371Z,101666.44
2022-08-27T01:04:28.187Z,101664.69
2022-08-27T01:06:58.470Z,101662.06
2022-08-27T01:09:31.510Z,101668.28
2022-08-27T01:12:01.938Z,101669.16
2022-08-27T01:14:32.157Z,101671.84
2022-08-27T01:17:05.434Z,101668.31
2022-08-27T01:19:41.935Z,101671.00
2022-08-27T01:22:20.416Z,101665.69
2022-08-27T01:24:58.699Z,101672.78
2022-08-27T01:27:31.527Z,101677.22
2022-08-27T01:30:01.752Z,101672.78
2022-08-27T01:32:36.624Z,101671.91
2022-08-27T01:35:09.755Z,101672.78
2022-08-27T01:37:40.821Z,101669.22
2022-08-27T01:40:14.286Z,101673.69
2022-08-27T01:42:49.534Z,101676.38
2022-08-27T01:45:25.795Z,101679.91
2022-08-27T01:47:55.983Z,101673.75
2022-08-27T01:50:29.524Z,101678.19
2022-08-27T01:52:59.639Z,101669.34
2022-08-27T01:55:32.032Z,101680.88
2022-08-27T01:58:01.817Z,101675.56
2022-08-27T02:00:34.956Z,101677.38
2022-08-27T02:03:06.086Z,101679.09
2022-08-27T02:05:44.745Z,101671.06
2022-08-27T02:08:16.087Z,101679.09
2022-08-27T02:10:50.379Z,101679.09
2022-08-27T02:13:21.187Z,101678.22
2022-08-27T02:15:51.082Z,101674.63
2022-08-27T02:18:21.186Z,101670.22
2022-08-27T02:20:51.729Z,101678.22
2022-08-27T02:23:21.995Z,101666.69
2022-08-27T02:25:54.369Z,101666.69
2022-08-27T02:28:24.166Z,101667.56
2022-08-27T02:30:53.903Z,101670.19
2022-08-27T02:33:23.660Z,101663.06
2022-08-27T02:35:53.420Z,101670.16
2022-08-27T02:38:25.774Z,101661.28
2022-08-27T02:40:59.056Z,101666.56
2022-08-27T02:43:28.843Z,101662.97
2022-08-27T02:45:58.583Z,101664.69
2022-08-27T02:48:28.423Z,101671.75
2022-08-27T02:50:58.245Z,101670.84
2022-08-27T02:53:28.684Z,101665.50
2022-08-27T02:56:01.483Z,101667.25
2022-08-27T02:58:31.283Z,101662.78
2022-08-27T03:01:01.358Z,101669.00
2022-08-27T03:03:31.747Z,101673.44
2022-08-27T03:06:01.951Z,101671.66
2022-08-27T03:08:32.539Z,101669.84
2022-08-27T03:11:25.808Z,101668.97
2022-08-27T03:13:56.175Z,101664.56
2022-08-27T03:16:26.080Z,101665.44
2022-08-27T03:18:53.412Z,101666.38
2022-08-27T03:21:26.556Z,101663.69
2022-08-27T03:23:57.128Z,101666.34
2022-08-27T03:26:30.628Z,101663.63
2022-08-27T03:29:01.381Z,101662.72
2022-08-27T03:31:31.467Z,101665.34
2022-08-27T03:34:03.951Z,101660.84
2022-08-27T03:36:34.413Z,101660.78
2022-08-27T03:39:04.231Z,101665.16
2022-08-27T03:41:43.859Z,101666.88
2022-08-27T03:44:25.089Z,101665.06
2022-08-27T03:46:55.465Z,101657.94
2022-08-27T03:49:26.183Z,101657.06
2022-08-27T03:51:56.506Z,101658.84
2022-08-27T03:54:26.351Z,101657.97
2022-08-27T03:56:58.715Z,101663.31
2022-08-27T03:59:28.470Z,101658.88
2022-08-27T04:01:58.314Z,101653.59
2022-08-27T04:04:28.674Z,101654.50
2022-08-27T04:06:59.066Z,101654.50
2022-08-27T04:09:29.299Z,101651.88
2022-08-27T04:12:01.756Z,101651.00
2022-08-27T04:14:31.543Z,101653.69
2022-08-27T04:17:01.392Z,101651.91
2022-08-27T04:19:33.332Z,101654.66
2022-08-27T04:22:04.632Z,101645.75
2022-08-27T04:24:36.302Z,101651.09
2022-08-27T04:27:09.336Z,101648.44
2022-08-27T04:29:39.090Z,101653.75
2022-08-27T04:32:10.122Z,101646.69
2022-08-27T04:34:39.961Z,101651.19
2022-08-27T04:37:10.074Z,101646.75
2022-08-27T04:39:39.868Z,101645.84
2022-08-27T04:42:12.333Z,101644.03
2022-08-27T04:44:42.140Z,101650.22
2022-08-27T04:47:11.893Z,101650.16
2022-08-27T04:49:42.117Z,101651.00
2022-08-27T04:52:12.143Z,101655.41
2022-08-27T04:54:42.254Z,101651.81
2022-08-27T04:57:14.648Z,101650.06
2022-08-27T04:59:44.441Z,101653.59
2022-08-27T05:02:14.640Z,101647.31
2022-08-27T05:04:46.223Z,101657.97
2022-08-27T05:07:16.056Z,101650.91
2022-08-27T05:09:45.817Z,101660.75
2022-08-27T05:12:18.166Z,101658.19
2022-08-27T05:14:47.951Z,101648.50
2022-08-27T05:17:17.709Z,101652.97
2022-08-27T05:19:47.464Z,101652.09
2022-08-27T05:22:17.252Z,101651.19
2022-08-27T05:24:50.221Z,101653.81
2022-08-27T05:27:22.824Z,101660.84
2022-08-27T05:29:52.564Z,101656.47
2022-08-27T05:32:22.295Z,101657.34
2022-08-27T05:34:52.049Z,101656.47
2022-08-27T05:37:22.135Z,101664.50
2022-08-27T05:39:51.988Z,101664.53
2022-08-27T05:42:24.409Z,101660.13
2022-08-27T05:44:54.401Z,101659.28
2022-08-27T05:47:24.278Z,101664.63
2022-08-27T05:49:54.995Z,101666.50
2022-08-27T05:52:24.825Z,101659.44
2022-08-27T05:54:55.190Z,101661.28
2022-08-27T05:57:27.535Z,101655.13
2022-08-27T06:00:09.735Z,101669.41
2022-08-27T06:02:46.268Z,101665.00
2022-08-27T06:05:16.093Z,101663.31
2022-08-27T06:07:45.885Z,101664.22
2022-08-27T06:10:16.342Z,101662.50
2022-08-27T06:12:48.905Z,101668.78
2022-08-27T06:15:18.711Z,101670.56
2022-08-27T06:17:48.502Z,101665.25
2022-08-27T06:20:20.792Z,101671.56
2022-08-27T06:22:50.563Z,101676.03
2022-08-27T06:25:20.481Z,101679.56
2022-08-27T06:27:52.983Z,101682.25
2022-08-27T06:30:22.788Z,101678.75
2022-08-27T06:32:52.683Z,101680.53
2022-08-27T06:35:22.574Z,101680.53
2022-08-27T06:37:53.410Z,101683.22
2022-08-27T06:40:23.424Z,101688.53
2022-08-27T06:42:55.958Z,101686.81
2022-08-27T06:45:25.762Z,101696.59
2022-08-27T06:47:56.063Z,101688.66
2022-08-27T06:50:27.493Z,101695.81
2022-08-27T06:52:57.342Z,101691.41
2022-08-27T06:55:27.120Z,101695.88
2022-08-27T06:57:59.506Z,101698.56
2022-08-27T07:00:29.311Z,101703.09
2022-08-27T07:02:59.154Z,101702.25
2022-08-27T07:05:29.619Z,101703.16
2022-08-27T07:07:59.400Z,101688.03
2022-08-27T07:10:30.191Z,101704.94
2022-08-27T07:13:03.083Z,101706.78
2022-08-27T07:15:33.093Z,101712.28
2022-08-27T07:18:05.003Z,101715.19
2022-08-27T07:20:35.475Z,101711.06
2022-08-27T07:23:09.379Z,101713.94
2022-08-27T07:25:44.287Z,101714.91
2022-08-27T07:28:16.667Z,101726.53
2022-08-27T07:30:46.791Z,101731.03
2022-08-27T07:33:16.653Z,101730.19
2022-08-27T07:35:49.135Z,101732.09
2022-08-27T07:38:20.020Z,101734.00
2022-08-27T07:40:49.810Z,101732.31
2022-08-27T07:43:34.728Z,101733.31
2022-08-27T07:46:05.684Z,101733.38
2022-08-27T07:48:36.480Z,101741.44
2022-08-27T07:51:08.672Z,101742.25
2022-08-27T07:53:38.519Z,101735.94
2022-08-27T07:56:09.494Z,101750.13
2022-08-27T07:58:42.818Z,101743.81
2022-08-27T08:01:13.868Z,101743.78
2022-08-27T08:03:44.516Z,101741.09
2022-08-27T08:06:18.119Z,101745.66
2022-08-27T08:08:48.175Z,101745.75
2022-08-27T08:11:20.678Z,101745.78
2022-08-27T08:13:53.161Z,101751.16
2022-08-27T08:16:23.112Z,101746.66
2022-08-27T08:18:52.916Z,101751.94
2022-08-27T08:21:22.994Z,101751.88
2022-08-27T08:23:52.884Z,101750.91
2022-08-27T08:26:23.267Z,101749.97
2022-08-27T08:28:55.668Z,101749.06
2022-08-27T08:31:27.534Z,101748.16
2022-08-27T08:33:57.375Z,101749.13
2022-08-27T08:36:27.151Z,101751.00
2022-08-27T08:38:57.219Z,101745.75
2022-08-27T08:41:41.647Z,101746.75
2022-08-27T08:44:19.806Z,101770.00
2022-08-27T08:46:55.982Z,101759.31
2022-08-27T08:49:52.697Z,101753.97
2022-08-27T08:52:32.279Z,101754.03
2022-08-27T08:55:13.191Z,101760.28
2022-08-27T08:57:51.695Z,101758.53
2022-08-27T09:00:24.482Z,101757.66
2022-08-27T09:02:57.503Z,101753.22
2022-08-27T09:05:28.219Z,101760.34
2022-08-27T09:08:29.208Z,101755.94
2022-08-27T09:11:01.861Z,101758.63
2022-08-27T09:13:35.939Z,101766.69
2022-08-27T09:16:09.324Z,101758.63
2022-08-27T09:18:42.541Z,101763.97
2022-08-27T09:21:27.986Z,101755.94
2022-08-27T09:24:07.031Z,101767.56
2022-08-27T09:26:39.582Z,101762.19
2022-08-27T09:29:22.086Z,101777.38
2022-08-27T09:31:58.851Z,101764.91
2022-08-27T09:34:30.479Z,101769.34
2022-08-27T09:37:09.168Z,101780.06
2022-08-27T09:39:47.311Z,101776.50
2022-08-27T09:42:30.420Z,101775.59
2022-08-27T09:45:00.950Z,101785.41
2022-08-27T09:47:33.310Z,101783.63
2022-08-27T09:50:10.750Z,101781.84
2022-08-27T09:52:55.216Z,101786.31
2022-08-27T09:55:46.880Z,101781.84
2022-08-27T09:58:21.992Z,101782.72
2022-08-27T10:01:01.175Z,101776.50
2022-08-27T10:03:33.965Z,101787.22
2022-08-27T10:06:03.794Z,101780.06
2022-08-27T10:08:41.279Z,101782.72
2022-08-27T10:11:17.573Z,101786.31
2022-08-27T10:13:54.774Z,101787.19
2022-08-27T10:16:44.634Z,101785.41
2022-08-27T10:19:28.468Z,101782.75
2022-08-27T10:22:07.830Z,101792.56
2022-08-27T10:24:50.828Z,101791.63
2022-08-27T10:27:30.397Z,101790.72
2022-08-27T10:30:07.652Z,101796.09
2022-08-27T10:33:03.993Z,101802.41
2022-08-27T10:35:47.818Z,101803.25
2022-08-27T10:38:26.439Z,101805.97
2022-08-27T10:41:03.259Z,101794.31
2022-08-27T10:44:01.375Z,101794.31
2022-08-27T10:46:50.953Z,101793.47
2022-08-27T10:49:29.574Z,101791.66
2022-08-27T10:52:16.984Z,101784.53
2022-08-27T10:54:52.450Z,101789.84
2022-08-27T10:57:51.738Z,101791.63
2022-08-27T11:00:22.633Z,101789.84
2022-08-27T11:02:57.293Z,101797.91
2022-08-27T11:05:31.978Z,101793.44
2022-08-27T11:08:12.849Z,101794.28
2022-08-27T11:10:48.749Z,101799.66
2022-08-27T11:13:24.290Z,101790.72
2022-08-27T11:15:57.724Z,101790.72
2022-08-27T11:18:43.202Z,101788.03
2022-08-27T11:21:17.482Z,101791.59
2022-08-27T11:23:55.424Z,101790.72
2022-08-27T11:26:25.212Z,101800.53
2022-08-27T11:28:58.365Z,101796.94
2022-08-27T11:31:35.917Z,101800.50
2022-08-27T11:34:13.139Z,101798.69
2022-08-27T11:37:02.882Z,101805.84
2022-08-27T11:39:51.979Z,101810.28
2022-08-27T11:42:36.390Z,101812.97
2022-08-27T11:45:11.323Z,101810.25
2022-08-27T11:47:41.249Z,101807.53
2022-08-27T11:50:21.116Z,101804.00
2022-08-27T11:53:00.983Z,101811.16
2022-08-27T11:55:37.090Z,101812.06
2022-08-27T11:58:14.100Z,101810.28
2022-08-27T12:00:45.874Z,101804.91
2022-08-27T12:03:28.935Z,101792.44
2022-08-27T12:06:20.703Z,101793.38
2022-08-27T12:08:50.550Z,101792.47
2022-08-27T12:11:45.009Z,101788.94
2022-08-27T12:14:32.503Z,101790.75
2022-08-27T12:17:10.121Z,101799.66
2022-08-27T12:19:52.271Z,101799.66
2022-08-27T12:22:59.560Z,101800.53
2022-08-27T12:25:30.450Z,101794.25
2022-08-27T12:28:06.138Z,101798.75
2022-08-27T12:30:38.405Z,101803.19
2022-08-27T12:33:15.581Z,101801.44
2022-08-27T12:35:50.180Z,101801.44
2022-08-27T12:38:23.076Z,101798.72
2022-08-27T12:40:57.867Z,101798.75
2022-08-27T12:43:33.585Z,101797.81
2022-08-27T12:46:06.060Z,101798.69
2022-08-27T12:48:39.764Z,101789.75
2022-08-27T12:51:16.095Z,101794.22
2022-08-27T12:53:48.007Z,101800.47
2022-08-27T12:56:54.283Z,101793.34
2022-08-27T12:59:46.404Z,101795.09
2022-08-27T13:02:31.376Z,101780.81
2022-08-27T13:05:10.108Z,101786.22
2022-08-27T13:07:44.402Z,101786.22
2022-08-27T13:10:17.438Z,101785.34
2022-08-27T13:12:48.727Z,101787.16
2022-08-27T13:15:22.639Z,101785.34
2022-08-27T13:17:52.883Z,101786.28
2022-08-27T13:20:26.830Z,101784.50
2022-08-27T13:22:57.382Z,101786.31
2022-08-27T13:25:31.029Z,101779.16
2022-08-27T13:28:08.253Z,101784.53
2022-08-27T13:30:45.228Z,101796.13
2022-08-27T13:33:19.350Z,101798.78
2022-08-27T13:35:49.217Z,101783.59
2022-08-27T13:38:20.559Z,101779.13
2022-08-27T13:41:01.170Z,101799.66
2022-08-27T13:43:38.636Z,101782.72
2022-08-27T13:46:16.403Z,101782.69
2022-08-27T13:48:48.461Z,101774.63
2022-08-27T13:51:18.816Z,101777.34
2022-08-27T13:54:04.624Z,101777.31
2022-08-27T13:56:37.407Z,101786.25
2022-08-27T13:59:15.072Z,101793.38
2022-08-27T14:01:58.737Z,101789.75
2022-08-27T14:04:30.626Z,101800.44
2022-08-27T14:07:00.405Z,101797.72
2022-08-27T14:09:32.259Z,101800.38
2022-08-27T14:12:03.990Z,101797.66
2022-08-27T14:14:39.058Z,101799.41
2022-08-27T14:17:29.083Z,101792.28
2022-08-27T14:20:04.423Z,101794.03
2022-08-27T14:22:35.761Z,101802.06
2022-08-27T14:25:05.725Z,101788.69
2022-08-27T14:27:38.186Z,101795.81
2022-08-27T14:30:10.858Z,101792.22
2022-08-27T14:32:44.270Z,101800.25
2022-08-27T14:35:15.198Z,101794.91
2022-08-27T14:37:55.926Z,101794.03
2022-08-27T14:40:25.854Z,101797.59
2022-08-27T14:42:56.289Z,101803.81
2022-08-27T14:45:26.155Z,101808.25
2022-08-27T14:48:02.161Z,101804.69
2022-08-27T14:50:32.439Z,101810.94
2022-08-27T14:53:02.230Z,101814.50
2022-08-27T14:55:32.030Z,101814.50
2022-08-27T14:58:02.211Z,101805.59
2022-08-27T15:00:32.222Z,101807.38
2022-08-27T15:03:04.647Z,101802.88
2022-08-27T15:05:34.457Z,101802.84
2022-08-27T15:08:04.576Z,101799.28
2022-08-27T15:10:34.934Z,101802.00
2022-08-27T15:13:05.540Z,101808.31
2022-08-27T15:15:35.347Z,101809.19
2022-08-27T15:18:08.930Z,101795.84
2022-08-27T15:20:39.183Z,101805.63
2022-08-27T15:23:09.067Z,101816.31
2022-08-27T15:25:38.815Z,101805.63
2022-08-27T15:28:09.059Z,101822.56
2022-08-27T15:30:38.823Z,101809.16
2022-08-27T15:33:11.421Z,101813.56
2022-08-27T15:35:41.260Z,101825.19
2022-08-27T15:38:11.203Z,101831.44
2022-08-27T15:40:41.273Z,101833.19
2022-08-27T15:43:13.255Z,101834.91
2022-08-27T15:45:43.151Z,101831.31
2022-08-27T15:48:15.494Z,101850.06
2022-08-27T15:50:45.991Z,101841.13
2022-08-27T15:53:15.918Z,101838.44
2022-08-27T15:55:47.705Z,101840.16
2022-08-27T15:58:17.456Z,101839.19
2022-08-27T16:00:48.696Z,101834.72
2022-08-27T16:03:35.556Z,101843.56
2022-08-27T16:06:06.525Z,101847.06
2022-08-27T16:08:39.178Z,101844.34
2022-08-27T16:11:12.963Z,101843.47
2022-08-27T16:13:43.048Z,101854.16
2022-08-27T16:16:13.912Z,101846.97
2022-08-27T16:18:46.641Z,101846.94
2022-08-27T16:21:16.343Z,101846.94
2022-08-27T16:23:46.091Z,101845.13
2022-08-27T16:26:16.640Z,101844.28
2022-08-27T16:28:46.409Z,101846.97
2022-08-27T16:31:16.665Z,101841.63
2022-08-27T16:33:49.709Z,101844.28
2022-08-27T16:36:19.616Z,101837.97
2022-08-27T16:38:50.570Z,101840.59
2022-08-27T16:41:21.519Z,101845.88
2022-08-27T16:43:51.631Z,101843.16
2022-08-27T16:46:21.466Z,101841.38
2022-08-27T16:49:06.405Z,101849.41
2022-08-27T16:51:38.197Z,101845.75
2022-08-27T16:54:09.334Z,101837.66
2022-08-27T16:56:40.248Z,101842.06
2022-08-27T16:59:13.146Z,101845.56
2022-08-27T17:01:43.822Z,101841.94
2022-08-27T17:04:26.528Z,101842.81
2022-08-27T17:07:00.116Z,101841.09
2022-08-27T17:09:29.845Z,101846.44
2022-08-27T17:12:05.353Z,101847.31
2022-08-27T17:14:37.963Z,101843.72
2022-08-27T17:17:09.578Z,101847.25
2022-08-27T17:19:42.154Z,101846.34
2022-08-27T17:22:12.149Z,101844.56
2022-08-27T17:24:41.868Z,101849.88
2022-08-27T17:27:11.984Z,101847.25
2022-08-27T17:29:41.837Z,101849.06
2022-08-27T17:32:12.283Z,101843.72
2022-08-27T17:34:44.723Z,101844.63
2022-08-27T17:37:14.583Z,101857.09
2022-08-27T17:39:46.904Z,101848.16
2022-08-27T17:42:16.807Z,101855.28
2022-08-27T17:44:46.616Z,101852.63
2022-08-27T17:47:16.367Z,101849.91
2022-08-27T17:49:49.168Z,101860.47
2022-08-27T17:52:19.024Z,101858.63
2022-08-27T17:54:51.172Z,101856.81
2022-08-27T17:57:23.691Z,101865.66
2022-08-27T17:59:54.569Z,101859.34
2022-08-27T18:02:27.808Z,101870.00
2022-08-27T18:05:00.215Z,101866.44
2022-08-27T18:07:30.675Z,101871.69
2022-08-27T18:10:00.523Z,101874.31
2022-08-27T18:12:30.807Z,101868.88
2022-08-27T18:15:06.316Z,101866.09
2022-08-27T18:17:36.279Z,101874.88
2022-08-27T18:20:12.892Z,101878.38
2022-08-27T18:22:48.198Z,101877.44
2022-08-27T18:25:20.030Z,101876.50
2022-08-27T18:27:52.773Z,101875.63
2022-08-27T18:30:23.096Z,101872.03
2022-08-27T18:32:52.923Z,101878.28
2022-08-27T18:35:28.661Z,101878.28
2022-08-27T18:37:59.199Z,101880.88
2022-08-27T18:40:33.239Z,101876.31
2022-08-27T18:43:03.021Z,101878.94
2022-08-27T18:45:34.874Z,101879.88
2022-08-27T18:48:06.172Z,101882.50
2022-08-27T18:50:38.655Z,101886.94
2022-08-27T18:53:08.491Z,101887.78
2022-08-27T18:55:38.196Z,101897.56
2022-08-27T18:58:07.971Z,101889.53
2022-08-27T19:00:38.089Z,101893.03
2022-08-27T19:03:08.067Z,101887.69
2022-08-27T19:05:40.593Z,101893.91
2022-08-27T19:08:13.160Z,101881.44
2022-08-27T19:10:43.058Z,101885.84
2022-08-27T19:13:12.773Z,101889.38
2022-08-27T19:15:46.210Z,101892.88
2022-08-27T19:18:15.961Z,101894.66
2022-08-27T19:20:48.339Z,101895.59
2022-08-27T19:23:22.197Z,101906.22
2022-08-27T19:25:52.764Z,101895.53
2022-08-27T19:28:27.777Z,101900.84
2022-08-27T19:30:57.692Z,101907.06
2022-08-27T19:33:27.450Z,101902.63
2022-08-27T19:36:00.497Z,101902.63
2022-08-27T19:38:34.228Z,101905.28
2022-08-27T19:41:05.060Z,101912.38
2022-08-27T19:43:35.231Z,101910.59
2022-08-27T19:46:07.606Z,101910.56
2022-08-27T19:48:37.447Z,101920.25
2022-08-27T19:51:10.171Z,101929.06
2022-08-27T19:53:39.978Z,101927.22
2022-08-27T19:56:10.833Z,101915.56
2022-08-27T19:58:40.551Z,101920.84
2022-08-27T20:01:11.613Z,101925.22
2022-08-27T20:03:41.814Z,101923.38
2022-08-27T20:06:14.678Z,101924.22
2022-08-27T20:08:44.603Z,101919.78
2022-08-27T20:11:17.987Z,101928.59
2022-08-27T20:13:52.120Z,101909.97
2022-08-27T20:16:21.916Z,101910.91
2022-08-27T20:18:51.728Z,101917.94
2022-08-27T20:21:24.097Z,101911.78
2022-08-27T20:23:54.000Z,101910.91
2022-08-27T20:26:24.856Z,101908.22
2022-08-27T20:28:55.335Z,101908.22
2022-08-27T20:31:25.143Z,101904.63
2022-08-27T20:33:55.492Z,101907.25
2022-08-27T20:36:31.736Z,101901.91
2022-08-27T20:39:02.313Z,101898.31
2022-08-27T20:41:32.128Z,101906.31
2022-08-27T20:44:02.274Z,101903.66
2022-08-27T20:46:34.581Z,101903.75
2022-08-27T20:49:04.660Z,101906.50
2022-08-27T20:52:02.196Z,101914.53
2022-08-27T20:54:27.486Z,101913.59
2022-08-27T20:56:57.194Z,101909.06
2022-08-27T20:59:39.349Z,101925.00
2022-08-27T21:02:11.542Z,101923.97
2022-08-27T21:04:42.693Z,101928.38
2022-08-27T21:07:15.324Z,101931.88
2022-08-27T21:09:56.838Z,101927.34
2022-08-27T21:12:27.899Z,101919.25
2022-08-27T21:14:58.227Z,101920.19
2022-08-27T21:17:29.240Z,101921.91
2022-08-27T21:19:59.224Z,101928.16
2022-08-27T21:22:31.596Z,101921.91
2022-08-27T21:25:01.336Z,101926.41
2022-08-27T21:27:31.123Z,101933.44
2022-08-27T21:30:01.316Z,101922.75
2022-08-27T21:32:31.096Z,101923.63
2022-08-27T21:35:00.823Z,101922.81
2022-08-27T21:37:33.232Z,101921.91
2022-08-27T21:40:03.146Z,101925.41
2022-08-27T21:42:32.994Z,101920.94
2022-08-27T21:45:02.753Z,101917.38
2022-08-27T21:47:32.549Z,101916.53
2022-08-27T21:50:02.305Z,101928.97
2022-08-27T21:52:34.895Z,101927.25
2022-08-27T21:55:04.837Z,101932.56
2022-08-27T21:57:34.631Z,101931.66
2022-08-27T22:00:12.502Z,101931.59
2022-08-27T22:02:42.232Z,101930.69
2022-08-27T22:05:12.800Z,101937.75
2022-08-27T22:07:45.112Z,101938.59
2022-08-27T22:10:15.188Z,101936.81
2022-08-27T22:12:44.893Z,101929.69
2022-08-27T22:15:14.760Z,101928.78
2022-08-27T22:17:48.302Z,101931.47
2022-08-27T22:20:21.233Z,101935.97
2022-08-27T22:22:54.011Z,101929.75
2022-08-27T22:25:23.806Z,101928.03
2022-08-27T22:27:53.571Z,101934.28
2022-08-27T22:30:23.925Z,101921.84
2022-08-27T22:32:54.476Z,101933.25
2022-08-27T22:35:24.816Z,101930.53
2022-08-27T22:37:59.991Z,101928.66
2022-08-27T22:40:32.146Z,101933.94
2022-08-27T22:43:02.391Z,101936.50
2022-08-27T22:45:32.325Z,101932.06
2022-08-27T22:48:02.037Z,101937.44
2022-08-27T22:50:31.749Z,101928.63
2022-08-27T22:53:04.338Z,101941.09
2022-08-27T22:55:34.164Z,101933.16
2022-08-27T22:58:04.200Z,101931.44
2022-08-27T23:00:36.867Z,101935.03
2022-08-27T23:03:10.282Z,101942.97
2022-08-27T23:05:41.973Z,101942.00
2022-08-27T23:08:15.260Z,101937.44
2022-08-27T23:10:46.930Z,101933.81
2022-08-27T23:13:16.707Z,101950.63
2022-08-27T23:15:46.548Z,101949.75
2022-08-27T23:18:16.733Z,101947.09
2022-08-27T23:20:46.450Z,101947.97
2022-08-27T23:23:19.991Z,101948.91
2022-08-27T23:26:02.417Z,101944.44
2022-08-27T23:28:32.324Z,101939.09
2022-08-27T23:31:02.504Z,101947.94
2022-08-27T23:33:32.290Z,101939.00
2022-08-27T23:36:02.008Z,101940.72
2022-08-27T23:38:34.705Z,101938.94
2022-08-27T23:41:05.852Z,101938.06
2022-08-27T23:43:35.722Z,101938.06
2022-08-27T23:46:05.472Z,101934.50
2022-08-27T23:48:35.271Z,101937.13
2022-08-27T23:51:05.515Z,101933.63
2022-08-27T23:53:38.434Z,101939.00
2022-08-27T23:56:09.360Z,101933.63
2022-08-27T23:58:39.178Z,101935.44
